Time;durP1;ratioP1;P1;durP2;ratioP2;P2;SDS_P1;SDS_P2;PMS_P1;PMS_P2;Temp;Humidity;BMP_temperature;BMP_pressure;BME280_temperature;BME280_humidity;BME280_pressure;Samples;Min_cycle;Max_cycle;Signal;HPM_P1;HPM_P2
2022/09/20 00:01:05;;;;;;;0.90;0.90;;;12.10;96.20;;;;;;5034620;28;20353;-72
2022/09/20 00:03:32;;;;;;;1.08;1.08;;;12.00;96.60;;;;;;5035921;28;20302;-73
2022/09/20 00:06:04;;;;;;;1.10;1.10;;;12.00;96.40;;;;;;5035195;28;20253;-73
2022/09/20 00:08:31;;;;;;;1.40;1.30;;;11.90;96.60;;;;;;5039515;28;20250;-73
2022/09/20 00:11:01;;;;;;;1.13;1.13;;;11.90;96.90;;;;;;5032225;28;20700;-73
2022/09/20 00:13:29;;;;;;;0.90;0.90;;;11.90;96.80;;;;;;5036415;28;20753;-72
2022/09/20 00:15:56;;;;;;;1.55;0.90;;;11.90;97.00;;;;;;5033336;28;20832;-73
2022/09/20 00:18:23;;;;;;;0.90;0.90;;;11.80;97.00;;;;;;5051623;28;20254;-73
2022/09/20 00:20:52;;;;;;;1.20;1.10;;;11.80;97.40;;;;;;5032079;28;20657;-72
2022/09/20 00:23:21;;;;;;;1.10;1.10;;;11.70;97.40;;;;;;5038691;28;20274;-72
2022/09/20 00:25:56;;;;;;;1.08;1.00;;;11.60;97.80;;;;;;5044822;28;20188;-73
2022/09/20 00:28:23;;;;;;;1.95;1.00;;;11.60;97.90;;;;;;5032620;28;20301;-72
2022/09/20 00:30:52;;;;;;;1.02;1.00;;;11.50;98.10;;;;;;5034359;28;20239;-72
2022/09/20 00:33:19;;;;;;;1.13;1.13;;;11.50;98.00;;;;;;5033090;28;20219;-73
2022/09/20 00:35:46;;;;;;;0.90;0.90;;;11.40;98.40;;;;;;5033598;28;20716;-72
2022/09/20 00:38:13;;;;;;;0.90;0.90;;;11.30;98.70;;;;;;5030272;28;20212;-73
2022/09/20 00:40:43;;;;;;;1.13;1.13;;;11.30;99.00;;;;;;5031400;28;20191;-72
2022/09/20 00:43:14;;;;;;;0.80;0.80;;;11.20;99.20;;;;;;5031532;28;20215;-73
2022/09/20 00:45:43;;;;;;;1.20;1.20;;;11.30;99.30;;;;;;5036821;28;20283;-73
2022/09/20 00:48:15;;;;;;;1.08;1.08;;;11.30;99.30;;;;;;5033999;28;20235;-73
2022/09/20 00:50:44;;;;;;;1.10;1.10;;;11.30;99.20;;;;;;5031344;28;20739;-73
2022/09/20 00:53:20;;;;;;;1.15;1.15;;;11.30;99.20;;;;;;5033067;28;20289;-73
2022/09/20 00:55:53;;;;;;;0.88;0.88;;;11.30;99.60;;;;;;5036457;28;20199;-73
2022/09/20 00:58:24;;;;;;;0.90;0.90;;;11.20;99.90;;;;;;5026938;28;20305;-73
2022/09/20 01:00:54;;;;;;;0.90;0.90;;;11.20;99.90;;;;;;5031539;28;20199;-73
2022/09/20 01:03:24;;;;;;;0.80;0.80;;;11.20;99.90;;;;;;5031397;28;20277;-73
2022/09/20 01:05:52;;;;;;;1.05;1.05;;;11.10;99.90;;;;;;5033063;28;20202;-74
2022/09/20 01:08:20;;;;;;;1.08;1.08;;;11.10;99.90;;;;;;5030947;28;20274;-73
2022/09/20 01:10:49;;;;;;;1.13;1.13;;;11.10;99.90;;;;;;5035421;28;20192;-73
2022/09/20 01:13:16;;;;;;;1.02;1.02;;;11.10;99.90;;;;;;5047226;28;20704;-73
2022/09/20 01:15:46;;;;;;;1.00;1.00;;;11.10;99.90;;;;;;5035384;28;20249;-73
2022/09/20 01:18:14;;;;;;;1.08;1.08;;;11.10;99.90;;;;;;5036634;28;20231;-73
2022/09/20 01:20:44;;;;;;;1.23;1.10;;;11.10;99.90;;;;;;5033485;28;20204;-73
2022/09/20 01:23:45;;;;;;;1.00;1.00;;;11.10;99.90;;;;;;5028599;28;20222;-73
2022/09/20 01:26:40;;;;;;;0.77;0.77;;;11.10;99.90;;;;;;5032837;28;20202;-74
2022/09/20 01:29:19;;;;;;;1.20;1.20;;;11.10;99.90;;;;;;5034125;28;20723;-74
2022/09/20 01:31:52;;;;;;;1.20;1.20;;;11.10;99.90;;;;;;5032556;28;20200;-74
2022/09/20 01:34:28;;;;;;;1.02;1.02;;;11.00;99.90;;;;;;5029708;28;20406;-73
2022/09/20 01:37:05;;;;;;;1.02;1.02;;;11.00;99.90;;;;;;5041302;28;20203;-72
2022/09/20 01:39:42;;;;;;;1.25;1.25;;;11.00;99.90;;;;;;5037738;28;20223;-73
2022/09/20 01:42:11;;;;;;;1.00;1.00;;;11.00;99.90;;;;;;5035873;28;20203;-73
2022/09/20 01:44:48;;;;;;;1.00;1.00;;;10.90;99.90;;;;;;5030465;28;20231;-73
2022/09/20 01:47:25;;;;;;;0.90;0.90;;;10.90;99.90;;;;;;5045099;28;20206;-73
2022/09/20 01:50:00;;;;;;;1.05;1.05;;;10.80;99.90;;;;;;5049122;28;20230;-73
2022/09/20 01:53:03;;;;;;;0.95;0.95;;;10.80;99.90;;;;;;5033175;28;20233;-72
2022/09/20 01:56:03;;;;;;;1.15;1.15;;;10.80;99.90;;;;;;5006216;28;20269;-72
2022/09/20 01:59:10;;;;;;;1.20;1.20;;;10.80;99.90;;;;;;5038629;28;20241;-72
2022/09/20 02:02:07;;;;;;;1.05;1.05;;;10.80;99.90;;;;;;5024779;28;20207;-73
2022/09/20 02:05:01;;;;;;;1.10;1.10;;;10.80;99.90;;;;;;5032373;28;20227;-72
2022/09/20 02:08:05;;;;;;;1.00;1.00;;;10.80;99.90;;;;;;5017556;28;20200;-72
2022/09/20 02:10:58;;;;;;;1.00;1.00;;;10.80;99.90;;;;;;5032097;28;20223;-73
2022/09/20 02:13:32;;;;;;;0.98;0.98;;;10.80;99.90;;;;;;5045030;28;20226;-72
2022/09/20 02:16:32;;;;;;;0.88;0.88;;;10.90;99.90;;;;;;5050126;28;20195;-72
2022/09/20 02:19:38;;;;;;;1.10;1.10;;;10.90;99.90;;;;;;5033686;28;20219;-73
2022/09/20 02:22:21;;;;;;;1.02;1.02;;;10.80;99.90;;;;;;5037031;28;20661;-72
2022/09/20 02:24:58;;;;;;;1.13;1.13;;;10.80;99.90;;;;;;5027664;28;20223;-73
2022/09/20 02:27:35;;;;;;;0.88;0.88;;;10.70;99.90;;;;;;5049773;28;20195;-73
2022/09/20 02:30:19;;;;;;;1.00;1.00;;;10.70;99.90;;;;;;5030193;28;20231;-72
2022/09/20 02:33:21;;;;;;;1.15;1.15;;;10.70;99.90;;;;;;5030831;28;20226;-72
2022/09/20 02:36:21;;;;;;;1.15;1.15;;;10.70;99.90;;;;;;5029084;28;20207;-73
2022/09/20 02:38:59;;;;;;;0.90;0.90;;;10.70;99.90;;;;;;5029927;28;20223;-73
2022/09/20 02:41:47;;;;;;;1.25;1.25;;;10.70;99.90;;;;;;5027744;28;20203;-73
2022/09/20 02:44:22;;;;;;;1.00;1.00;;;10.70;99.90;;;;;;5037586;28;20566;-73
2022/09/20 02:46:56;;;;;;;1.00;1.00;;;10.60;99.90;;;;;;5029276;28;20239;-72
2022/09/20 02:49:32;;;;;;;1.00;1.00;;;10.60;99.90;;;;;;5034384;28;20220;-72
2022/09/20 02:52:07;;;;;;;1.10;1.10;;;10.50;99.90;;;;;;5039968;28;20202;-73
2022/09/20 02:54:45;;;;;;;1.00;1.00;;;10.50;99.90;;;;;;5036197;28;20267;-73
2022/09/20 02:57:21;;;;;;;1.00;1.00;;;10.40;99.90;;;;;;5031564;28;20261;-74
2022/09/20 02:59:55;;;;;;;0.80;0.80;;;10.40;99.90;;;;;;5032969;28;20226;-74
2022/09/20 03:02:27;;;;;;;1.05;1.05;;;10.40;99.90;;;;;;5033967;28;20656;-73
2022/09/20 03:05:06;;;;;;;1.00;1.00;;;10.40;99.90;;;;;;5046624;28;20227;-74
2022/09/20 03:07:42;;;;;;;1.00;1.00;;;10.40;99.90;;;;;;5031119;28;20721;-74
2022/09/20 03:10:18;;;;;;;1.10;1.10;;;10.40;99.90;;;;;;5031967;28;20283;-73
2022/09/20 03:13:00;;;;;;;1.02;1.02;;;10.40;99.90;;;;;;5031084;28;20195;-73
2022/09/20 03:15:40;;;;;;;0.80;0.80;;;10.40;99.90;;;;;;5030340;28;20195;-72
2022/09/20 03:18:15;;;;;;;1.00;1.00;;;10.40;99.90;;;;;;5032921;28;20654;-72
2022/09/20 03:20:54;;;;;;;0.88;0.88;;;10.30;99.90;;;;;;5033469;28;20652;-72
2022/09/20 03:23:38;;;;;;;1.05;1.05;;;10.30;99.90;;;;;;5027842;28;20613;-72
2022/09/20 03:26:20;;;;;;;0.90;0.90;;;10.30;99.90;;;;;;5031597;28;20194;-72
2022/09/20 03:28:59;;;;;;;0.93;0.93;;;10.30;99.90;;;;;;5020784;28;20232;-72
2022/09/20 03:31:43;;;;;;;1.02;1.02;;;10.20;99.90;;;;;;5008172;28;20269;-72
2022/09/20 03:34:25;;;;;;;1.08;1.08;;;10.20;99.90;;;;;;5019176;28;20228;-72
2022/09/20 03:37:18;;;;;;;1.00;1.00;;;10.20;99.90;;;;;;5026095;28;20195;-72
2022/09/20 03:40:23;;;;;;;1.17;1.17;;;10.20;99.90;;;;;;5025453;28;20223;-71
2022/09/20 03:42:53;;;;;;;1.00;1.00;;;10.10;99.90;;;;;;5028239;28;20219;-72
2022/09/20 03:45:45;;;;;;;1.00;1.00;;;10.10;99.90;;;;;;5028890;28;20282;-72
2022/09/20 03:48:35;;;;;;;1.15;1.15;;;10.10;99.90;;;;;;5037105;28;20223;-72
2022/09/20 03:51:18;;;;;;;1.00;1.00;;;10.10;99.90;;;;;;5030084;28;20195;-72
2022/09/20 03:54:30;;;;;;;1.00;1.00;;;10.10;99.90;;;;;;5027896;28;20226;-72
2022/09/20 03:57:29;;;;;;;1.23;1.23;;;10.10;99.90;;;;;;5021038;28;20196;-72
2022/09/20 04:00:22;;;;;;;1.25;1.25;;;10.10;99.90;;;;;;5028398;28;20265;-72
2022/09/20 04:03:18;;;;;;;0.90;0.90;;;10.10;99.90;;;;;;5028704;28;20227;-72
2022/09/20 04:05:59;;;;;;;0.93;0.93;;;10.10;99.90;;;;;;5015081;28;20223;-72
2022/09/20 04:08:48;;;;;;;1.00;1.00;;;10.10;99.90;;;;;;5029792;28;20218;-72
2022/09/20 04:11:25;;;;;;;1.20;1.20;;;10.00;99.90;;;;;;5033618;28;20246;-72
2022/09/20 04:13:58;;;;;;;1.05;1.05;;;10.00;99.90;;;;;;5029611;28;20298;-72
2022/09/20 04:16:41;;;;;;;1.58;1.40;;;10.00;99.90;;;;;;5030843;28;20661;-72
2022/09/20 04:19:18;;;;;;;1.50;1.40;;;9.90;99.90;;;;;;5030111;28;20259;-73
2022/09/20 04:21:54;;;;;;;2.05;1.40;;;9.90;99.90;;;;;;5030874;28;20203;-74
2022/09/20 04:24:38;;;;;;;1.27;1.10;;;10.70;99.90;;;;;;5031631;28;20273;-74
2022/09/20 04:27:12;;;;;;;1.27;1.27;;;11.20;99.90;;;;;;5032186;28;20229;-74
2022/09/20 04:29:47;;;;;;;1.25;1.23;;;11.70;99.90;;;;;;5030683;28;20214;-75
2022/09/20 04:32:22;;;;;;;1.38;1.20;;;12.20;99.90;;;;;;5030570;28;20269;-74
2022/09/20 04:37:42;;;;;;;0.90;0.90;;;12.90;99.90;;;;;;5031111;28;20214;-76
2022/09/20 04:40:20;;;;;;;1.00;1.00;;;13.00;99.90;;;;;;5027516;28;20208;-74
2022/09/20 04:43:22;;;;;;;1.13;1.13;;;13.00;99.90;;;;;;5026875;28;20191;-75
2022/09/20 04:46:25;;;;;;;0.88;0.88;;;13.10;99.90;;;;;;5030516;28;20195;-75
2022/09/20 04:49:22;;;;;;;0.82;0.82;;;13.10;99.90;;;;;;5030216;28;20914;-75
2022/09/20 04:52:33;;;;;;;3.53;1.27;;;13.10;99.90;;;;;;5033988;28;20685;-75
2022/09/20 04:55:36;;;;;;;0.80;0.80;;;13.00;99.90;;;;;;5032051;28;20636;-75
2022/09/20 04:58:35;;;;;;;1.00;1.00;;;12.90;99.90;;;;;;5033242;28;20222;-74
2022/09/20 05:01:38;;;;;;;0.82;0.82;;;12.50;99.90;;;;;;5020333;28;20211;-73
2022/09/20 05:04:33;;;;;;;0.90;0.90;;;12.10;99.90;;;;;;5031154;28;20246;-72
2022/09/20 05:07:35;;;;;;;1.00;1.00;;;11.90;99.90;;;;;;5029585;28;20215;-72
2022/09/20 05:10:33;;;;;;;1.40;1.30;;;11.50;99.90;;;;;;5029516;28;20325;-73
2022/09/20 05:13:21;;;;;;;1.02;1.02;;;11.20;99.90;;;;;;5030064;28;20227;-73
2022/09/20 05:15:57;;;;;;;1.15;1.15;;;10.90;99.90;;;;;;5028198;28;20195;-72
2022/09/20 05:18:59;;;;;;;1.63;0.98;;;10.70;99.90;;;;;;5034402;28;20243;-73
2022/09/20 05:22:04;;;;;;;2.35;1.25;;;10.50;99.90;;;;;;5028840;28;20601;-72
2022/09/20 05:25:00;;;;;;;0.90;0.90;;;10.30;99.90;;;;;;5029801;28;20306;-73
2022/09/20 05:27:38;;;;;;;1.05;1.05;;;10.10;99.90;;;;;;5033371;28;20199;-72
2022/09/20 05:30:23;;;;;;;1.10;1.10;;;10.00;99.90;;;;;;5029291;28;20612;-72
2022/09/20 05:33:01;;;;;;;1.00;1.00;;;10.00;99.90;;;;;;5029898;28;20195;-72
2022/09/20 05:35:33;;;;;;;1.20;1.20;;;9.90;99.90;;;;;;5028837;28;20590;-72
2022/09/20 05:38:11;;;;;;;1.10;1.10;;;9.90;99.90;;;;;;5028807;28;20593;-72
2022/09/20 05:40:58;;;;;;;1.30;1.30;;;9.90;99.90;;;;;;5030787;28;20192;-72
2022/09/20 05:43:34;;;;;;;1.30;1.30;;;10.00;99.90;;;;;;5031427;28;20242;-72
2022/09/20 05:46:14;;;;;;;1.20;1.20;;;10.10;99.90;;;;;;5033856;28;20198;-72
2022/09/20 05:48:53;;;;;;;1.45;1.40;;;10.60;99.90;;;;;;5045382;28;20219;-72
2022/09/20 05:51:33;;;;;;;1.30;1.20;;;11.10;99.90;;;;;;5027277;28;20285;-72
2022/09/20 05:54:23;;;;;;;1.10;1.10;;;11.80;99.90;;;;;;5029232;28;20231;-72
2022/09/20 05:57:00;;;;;;;1.10;1.10;;;12.40;99.90;;;;;;5029044;28;20551;-72
2022/09/20 05:59:41;;;;;;;1.20;1.20;;;13.00;99.90;;;;;;5030906;28;20233;-72
2022/09/20 06:02:34;;;;;;;1.00;0.90;;;13.30;99.90;;;;;;5029910;28;20195;-72
2022/09/20 06:05:09;;;;;;;1.00;1.00;;;13.70;99.90;;;;;;5028859;28;20310;-72
2022/09/20 06:08:02;;;;;;;1.08;1.08;;;14.10;99.90;;;;;;5027696;28;20207;-73
2022/09/20 06:10:47;;;;;;;1.10;1.10;;;14.20;99.90;;;;;;5029156;28;20246;-73
2022/09/20 06:13:51;;;;;;;1.30;1.20;;;14.60;99.90;;;;;;5031248;28;20285;-73
2022/09/20 06:16:28;;;;;;;1.13;1.13;;;14.60;99.90;;;;;;5026615;28;20257;-73
2022/09/20 06:19:07;;;;;;;2.17;1.00;;;14.70;99.90;;;;;;5026911;28;20223;-73
2022/09/20 06:21:42;;;;;;;1.08;1.08;;;14.80;99.90;;;;;;5029198;28;20223;-73
2022/09/20 06:24:22;;;;;;;1.63;1.40;;;14.90;99.90;;;;;;5031232;28;20231;-72
2022/09/20 06:26:53;;;;;;;1.15;1.10;;;14.70;99.90;;;;;;5042803;28;21287;-72
2022/09/20 06:29:29;;;;;;;1.00;1.00;;;14.70;99.90;;;;;;5026881;28;20214;-72
2022/09/20 06:31:56;;;;;;;0.95;0.95;;;14.90;99.90;;;;;;5030904;28;20199;-73
2022/09/20 06:34:25;;;;;;;1.55;1.25;;;15.20;99.90;;;;;;5029757;28;20223;-72
2022/09/20 06:42:37;;;;;;;2.15;1.25;;;15.30;99.90;;;;;;5028150;28;20239;-73
2022/09/20 06:45:06;;;;;;;1.08;1.08;;;15.40;99.90;;;;;;5029067;28;20310;-73
2022/09/20 06:47:34;;;;;;;1.20;1.00;;;15.50;99.60;;;;;;5030351;28;20195;-73
2022/09/20 06:50:01;;;;;;;0.90;0.90;;;15.50;99.60;;;;;;5029456;28;20228;-73
2022/09/20 06:52:29;;;;;;;1.02;1.02;;;15.70;99.90;;;;;;5025836;28;20683;-73
2022/09/20 06:54:57;;;;;;;1.20;1.10;;;15.80;99.90;;;;;;5029659;28;20231;-73
2022/09/20 06:57:30;;;;;;;1.10;1.10;;;16.10;99.90;;;;;;5030005;28;20196;-73
2022/09/20 06:59:57;;;;;;;1.38;1.00;;;16.30;99.90;;;;;;5030019;28;20219;-73
2022/09/20 07:02:26;;;;;;;1.30;1.20;;;16.50;99.90;;;;;;5032160;28;20199;-73
2022/09/20 07:04:54;;;;;;;1.50;1.40;;;16.50;99.90;;;;;;5027550;28;20227;-73
2022/09/20 07:07:21;;;;;;;1.33;1.00;;;16.50;99.90;;;;;;5032546;28;20203;-73
2022/09/20 07:09:48;;;;;;;1.10;1.00;;;16.50;99.90;;;;;;5027414;28;20220;-73
2022/09/20 07:12:16;;;;;;;2.05;1.17;;;16.40;99.90;;;;;;5025597;28;20203;-72
2022/09/20 07:14:43;;;;;;;1.40;0.98;;;16.50;99.50;;;;;;5028561;28;20898;-73
2022/09/20 07:17:10;;;;;;;1.10;1.10;;;16.60;99.40;;;;;;5028662;28;20196;-73
2022/09/20 07:19:39;;;;;;;1.50;1.17;;;16.60;99.30;;;;;;5028557;28;20216;-73
2022/09/20 07:22:07;;;;;;;0.95;0.95;;;16.80;99.40;;;;;;5029925;28;20301;-73
2022/09/20 07:24:34;;;;;;;4.72;1.20;;;16.80;98.90;;;;;;5024308;28;20576;-73
2022/09/20 07:27:03;;;;;;;1.00;1.00;;;16.80;98.60;;;;;;5028900;28;20195;-73
2022/09/20 07:29:33;;;;;;;0.80;0.80;;;17.00;98.60;;;;;;5029036;28;20688;-72
2022/09/20 07:32:01;;;;;;;0.90;0.90;;;17.10;98.20;;;;;;5030292;28;20680;-73
2022/09/20 07:34:28;;;;;;;1.13;1.10;;;17.20;97.80;;;;;;5026648;28;20219;-73
2022/09/20 07:36:58;;;;;;;1.20;1.10;;;17.40;97.20;;;;;;5029769;28;20204;-73
2022/09/20 07:39:26;;;;;;;1.20;1.00;;;17.50;96.80;;;;;;5025994;28;20229;-73
2022/09/20 07:41:53;;;;;;;1.00;0.98;;;17.60;96.80;;;;;;5045992;28;20212;-72
2022/09/20 07:44:24;;;;;;;1.70;1.00;;;17.40;96.40;;;;;;5042328;28;20272;-72
2022/09/20 07:46:53;;;;;;;1.33;1.10;;;17.60;97.20;;;;;;5042684;28;20291;-72
2022/09/20 07:49:20;;;;;;;1.10;1.10;;;17.60;96.70;;;;;;5027542;28;20219;-72
2022/09/20 07:51:48;;;;;;;1.35;1.00;;;17.80;96.70;;;;;;5027111;28;20242;-72
2022/09/20 07:54:17;;;;;;;1.15;1.15;;;17.80;96.70;;;;;;5025502;28;20223;-72
2022/09/20 07:56:45;;;;;;;0.90;0.85;;;18.00;96.40;;;;;;5027439;28;20198;-72
2022/09/20 07:59:13;;;;;;;1.00;0.95;;;18.10;95.20;;;;;;5029760;28;20230;-73
2022/09/20 08:01:41;;;;;;;0.93;0.88;;;18.10;95.80;;;;;;5029333;28;20291;-73
2022/09/20 08:04:09;;;;;;;0.82;0.82;;;18.10;95.50;;;;;;5030192;28;20227;-73
2022/09/20 08:06:37;;;;;;;0.77;0.77;;;18.20;95.60;;;;;;5044146;28;20210;-73
2022/09/20 08:09:05;;;;;;;1.10;1.00;;;18.30;95.70;;;;;;5029358;28;20228;-72
2022/09/20 08:11:35;;;;;;;0.80;0.80;;;18.60;95.90;;;;;;5029444;28;20215;-73
2022/09/20 08:14:04;;;;;;;1.30;0.90;;;18.60;95.80;;;;;;5029308;28;20314;-72
2022/09/20 08:16:32;;;;;;;0.80;0.80;;;18.50;95.00;;;;;;5029480;28;20206;-72
2022/09/20 08:19:01;;;;;;;1.08;0.98;;;18.40;95.40;;;;;;5027502;28;20223;-72
2022/09/20 08:21:31;;;;;;;1.52;1.00;;;18.50;96.30;;;;;;5033009;28;20290;-72
2022/09/20 08:23:59;;;;;;;2.55;1.00;;;18.60;96.30;;;;;;5048578;28;20704;-73
2022/09/20 08:26:29;;;;;;;1.42;1.33;;;18.70;96.00;;;;;;5051454;28;20229;-72
2022/09/20 08:29:00;;;;;;;1.00;1.00;;;18.40;95.50;;;;;;5032914;28;20236;-72
2022/09/20 08:31:30;;;;;;;2.08;1.02;;;18.60;96.10;;;;;;5030705;28;20230;-72
2022/09/20 08:34:01;;;;;;;0.93;0.88;;;18.60;95.80;;;;;;5031774;28;20231;-72
2022/09/20 08:36:29;;;;;;;2.00;0.98;;;19.00;95.90;;;;;;5048319;28;20203;-72
2022/09/20 08:38:57;;;;;;;0.77;0.77;;;19.10;95.40;;;;;;5032878;28;20404;-72
2022/09/20 08:41:29;;;;;;;0.88;0.88;;;19.40;95.90;;;;;;5046023;28;20245;-72
2022/09/20 08:44:01;;;;;;;0.98;0.90;;;19.30;94.60;;;;;;5029019;28;20240;-72
2022/09/20 08:46:34;;;;;;;1.02;0.82;;;19.40;95.50;;;;;;5031809;28;20624;-72
2022/09/20 08:49:04;;;;;;;1.00;1.00;;;19.40;94.30;;;;;;5029131;28;20281;-72
2022/09/20 08:51:35;;;;;;;0.70;0.70;;;19.40;94.20;;;;;;5032031;28;20215;-72
2022/09/20 08:54:03;;;;;;;3.20;0.80;;;19.30;94.50;;;;;;5044466;28;20224;-72
2022/09/20 08:56:35;;;;;;;0.90;0.65;;;19.30;94.50;;;;;;5031885;28;20570;-72
2022/09/20 08:59:04;;;;;;;0.93;0.77;;;19.40;95.10;;;;;;5030112;28;20226;-72
2022/09/20 09:01:32;;;;;;;1.95;0.90;;;19.60;94.60;;;;;;5028178;28;20200;-73
2022/09/20 09:04:10;;;;;;;0.90;0.90;;;19.90;93.90;;;;;;5027829;28;20723;-73
2022/09/20 09:06:39;;;;;;;2.75;1.08;;;19.80;93.10;;;;;;5035737;28;20280;-75
2022/09/20 09:09:07;;;;;;;1.10;1.00;;;19.80;93.70;;;;;;5029353;28;20302;-74
2022/09/20 09:11:35;;;;;;;1.35;0.85;;;19.80;92.70;;;;;;5032000;28;20223;-74
2022/09/20 09:14:46;;;;;;;0.80;0.80;;;19.90;93.00;;;;;;5025222;28;20219;-74
2022/09/20 09:16:54;;;;;;;0.80;0.80;;;20.10;92.40;;;;;;5031572;28;20196;-74
2022/09/20 09:19:30;;;;;;;0.70;0.60;;;20.40;91.80;;;;;;5031473;28;20220;-75
2022/09/20 09:22:00;;;;;;;1.20;0.80;;;20.80;92.70;;;;;;5028622;28;20226;-75
2022/09/20 09:24:27;;;;;;;0.80;0.80;;;21.20;92.30;;;;;;5030166;28;20280;-75
2022/09/20 09:27:09;;;;;;;0.57;0.57;;;21.40;91.30;;;;;;5030540;28;20609;-73
2022/09/20 09:29:49;;;;;;;0.80;0.80;;;21.40;88.10;;;;;;5031817;28;20262;-76
2022/09/20 09:32:22;;;;;;;0.93;0.60;;;21.40;85.70;;;;;;5025980;28;20306;-74
2022/09/20 09:34:50;;;;;;;0.60;0.60;;;20.90;86.70;;;;;;5032121;28;20227;-76
2022/09/20 09:37:24;;;;;;;0.75;0.70;;;20.80;87.00;;;;;;5027342;28;20200;-76
2022/09/20 09:40:08;;;;;;;1.30;0.60;;;20.70;85.60;;;;;;5029852;28;20786;-71
2022/09/20 09:42:36;;;;;;;0.70;0.70;;;20.60;83.60;;;;;;5027380;28;20227;-73
2022/09/20 09:45:26;;;;;;;0.52;0.52;;;20.60;85.30;;;;;;5031498;28;20297;-75
2022/09/20 09:47:54;;;;;;;0.70;0.70;;;21.00;86.50;;;;;;5041926;28;20306;-74
2022/09/20 09:50:26;;;;;;;1.23;0.77;;;21.10;87.90;;;;;;5024102;28;20223;-74
2022/09/20 09:53:03;;;;;;;1.20;0.80;;;21.00;88.50;;;;;;5025131;28;20199;-74
2022/09/20 09:55:51;;;;;;;1.45;0.70;;;20.90;88.80;;;;;;5029517;28;20199;-74
2022/09/20 09:58:31;;;;;;;0.70;0.70;;;20.90;89.20;;;;;;5029470;28;20314;-74
2022/09/20 10:01:04;;;;;;;0.70;0.70;;;21.20;90.40;;;;;;5027505;28;20203;-75
2022/09/20 10:03:47;;;;;;;0.77;0.77;;;21.30;89.00;;;;;;5024311;28;20310;-74
2022/09/20 10:06:23;;;;;;;2.17;0.90;;;21.60;89.90;;;;;;5022503;28;20196;-74
2022/09/20 10:09:20;;;;;;;0.80;0.80;;;21.60;87.90;;;;;;5024470;28;20223;-74
2022/09/20 10:12:02;;;;;;;0.70;0.70;;;21.60;83.80;;;;;;5018853;28;20231;-75
2022/09/20 10:14:49;;;;;;;1.20;0.75;;;21.40;84.70;;;;;;5029402;28;20226;-75
2022/09/20 10:17:34;;;;;;;0.70;0.70;;;21.60;88.20;;;;;;5041887;28;20199;-75
2022/09/20 10:20:24;;;;;;;0.70;0.70;;;22.00;86.90;;;;;;5026713;28;20222;-74
2022/09/20 10:23:01;;;;;;;0.88;0.55;;;21.80;86.00;;;;;;5029474;28;20196;-74
2022/09/20 10:25:39;;;;;;;0.80;0.73;;;21.90;83.60;;;;;;5030992;28;20250;-74
2022/09/20 10:28:22;;;;;;;0.60;0.60;;;21.80;82.50;;;;;;5024653;28;20223;-75
2022/09/20 10:31:01;;;;;;;0.85;0.70;;;21.80;80.70;;;;;;5025624;28;20683;-75
2022/09/20 10:33:45;;;;;;;0.82;0.70;;;21.50;80.40;;;;;;5028863;28;20250;-75
2022/09/20 10:36:24;;;;;;;0.75;0.75;;;21.40;79.60;;;;;;5041561;28;20672;-75
2022/09/20 10:38:59;;;;;;;1.00;0.85;;;21.50;82.10;;;;;;5023859;28;20298;-76
2022/09/20 10:44:40;;;;;;;0.50;0.50;;;22.50;82.00;;;;;;5021966;28;20234;-76
2022/09/20 10:47:12;;;;;;;0.75;0.63;;;22.50;81.20;;;;;;5024421;28;20734;-76
2022/09/20 10:49:46;;;;;;;1.35;0.77;;;22.20;78.70;;;;;;5024828;28;20314;-76
2022/09/20 10:52:30;;;;;;;0.50;0.50;;;22.10;79.90;;;;;;5025806;28;20220;-76
2022/09/20 10:55:12;;;;;;;0.80;0.80;;;22.00;80.90;;;;;;5025426;28;20250;-76
2022/09/20 10:58:00;;;;;;;0.52;0.52;;;21.90;81.00;;;;;;5029481;28;20211;-75
2022/09/20 11:00:41;;;;;;;0.50;0.50;;;22.10;82.40;;;;;;5024145;28;20840;-76
2022/09/20 11:03:23;;;;;;;0.77;0.77;;;22.20;81.90;;;;;;5024822;28;20247;-76
2022/09/20 11:06:05;;;;;;;0.60;0.60;;;22.10;81.00;;;;;;5022572;28;20253;-76
2022/09/20 11:08:35;;;;;;;1.05;0.65;;;22.10;80.90;;;;;;5027144;28;20223;-76
2022/09/20 11:11:09;;;;;;;0.88;0.88;;;22.10;80.90;;;;;;5022375;28;20212;-76
2022/09/20 11:13:44;;;;;;;0.70;0.70;;;22.00;78.70;;;;;;5025988;28;20704;-76
2022/09/20 11:16:16;;;;;;;0.70;0.70;;;22.00;78.60;;;;;;5025260;28;20277;-75
2022/09/20 11:18:50;;;;;;;0.77;0.60;;;22.10;78.30;;;;;;5030574;28;20729;-76
2022/09/20 11:21:25;;;;;;;1.20;0.68;;;22.00;78.90;;;;;;5026335;28;20279;-76
2022/09/20 11:23:58;;;;;;;1.58;0.80;;;22.40;80.60;;;;;;5023330;28;20897;-76
2022/09/20 11:26:32;;;;;;;0.50;0.50;;;22.80;80.00;;;;;;5026913;28;20212;-76
2022/09/20 11:29:08;;;;;;;1.02;0.60;;;23.10;78.00;;;;;;5026119;28;20226;-76
2022/09/20 11:31:39;;;;;;;0.52;0.50;;;23.00;76.70;;;;;;5032987;28;20222;-74
2022/09/20 11:34:14;;;;;;;0.98;0.80;;;22.70;78.00;;;;;;5025269;28;20223;-74
2022/09/20 11:36:51;;;;;;;0.65;0.65;;;22.60;77.40;;;;;;5027424;28;20364;-74
2022/09/20 11:39:21;;;;;;;0.70;0.70;;;22.40;77.20;;;;;;5023422;28;20219;-74
2022/09/20 11:41:52;;;;;;;0.60;0.60;;;22.40;79.10;;;;;;5019980;28;20196;-74
2022/09/20 11:44:21;;;;;;;0.70;0.60;;;22.50;77.90;;;;;;5023649;28;20653;-75
2022/09/20 11:46:54;;;;;;;0.52;0.52;;;22.60;77.60;;;;;;5022367;28;20199;-75
2022/09/20 11:49:27;;;;;;;0.63;0.63;;;22.80;77.40;;;;;;5023667;28;20246;-74
2022/09/20 11:52:33;;;;;;;0.60;0.60;;;22.70;76.10;;;;;;5026422;28;20227;-74
2022/09/20 11:55:28;;;;;;;0.50;0.50;;;22.50;72.90;;;;;;5024195;28;20231;-75
2022/09/20 11:58:02;;;;;;;0.60;0.60;;;22.60;76.00;;;;;;5025532;28;20573;-74
2022/09/20 12:00:31;;;;;;;2.33;0.50;;;22.70;76.00;;;;;;5028208;28;20228;-74
2022/09/20 12:02:59;;;;;;;0.50;0.50;;;22.70;74.20;;;;;;5029090;28;20254;-75
2022/09/20 12:05:32;;;;;;;0.35;0.35;;;22.70;75.20;;;;;;5026742;28;20933;-75
2022/09/20 12:08:04;;;;;;;0.60;0.60;;;22.80;77.10;;;;;;5029922;28;20312;-75
2022/09/20 12:10:34;;;;;;;0.50;0.50;;;22.90;74.70;;;;;;5030441;28;20226;-75
2022/09/20 12:13:04;;;;;;;0.68;0.60;;;22.90;72.90;;;;;;5029381;28;20227;-75
2022/09/20 12:15:34;;;;;;;4.03;0.50;;;22.70;72.70;;;;;;5027502;28;20542;-74
2022/09/20 12:18:28;;;;;;;0.65;0.60;;;22.70;74.70;;;;;;5029728;28;20218;-74
2022/09/20 12:21:04;;;;;;;0.32;0.30;;;22.70;73.80;;;;;;5022686;28;20257;-75
2022/09/20 12:24:08;;;;;;;0.90;0.75;;;22.70;72.90;;;;;;5027996;28;20696;-74
2022/09/20 12:26:44;;;;;;;0.68;0.60;;;22.70;69.10;;;;;;5029696;28;20192;-75
2022/09/20 12:30:02;;;;;;;0.75;0.70;;;22.70;69.20;;;;;;5029539;28;20215;-75
2022/09/20 12:32:55;;;;;;;0.60;0.60;;;22.70;68.00;;;;;;5026574;28;20236;-75
2022/09/20 12:35:52;;;;;;;0.50;0.50;;;22.80;70.60;;;;;;5025431;28;20265;-75
2022/09/20 12:38:32;;;;;;;1.27;0.63;;;22.90;65.40;;;;;;5058164;28;20262;-74
2022/09/20 12:41:18;;;;;;;0.60;0.60;;;22.80;68.50;;;;;;5061310;28;20266;-75
2022/09/20 12:44:02;;;;;;;0.50;0.50;;;22.80;65.80;;;;;;5025486;28;20215;-75
2022/09/20 12:46:38;;;;;;;0.50;0.50;;;22.90;67.40;;;;;;5029876;28;20306;-74
2022/09/20 12:52:52;;;;;;;0.70;0.70;;;23.00;63.90;;;;;;5015978;28;20273;-75
2022/09/20 12:55:46;;;;;;;0.47;0.47;;;23.00;63.30;;;;;;5030707;28;20304;-75
2022/09/20 12:58:37;;;;;;;2.08;0.70;;;22.90;64.10;;;;;;5030737;28;20313;-75
2022/09/20 13:01:30;;;;;;;0.85;0.60;;;22.90;63.70;;;;;;5031243;28;20203;-75
2022/09/20 13:04:31;;;;;;;0.75;0.75;;;22.60;60.60;;;;;;5032003;28;20223;-75
2022/09/20 13:07:40;;;;;;;0.57;0.57;;;22.50;63.10;;;;;;5032611;28;20194;-75
2022/09/20 13:10:31;;;;;;;0.50;0.50;;;22.40;63.60;;;;;;5001478;28;20294;-76
2022/09/20 13:13:04;;;;;;;0.55;0.55;;;22.60;65.10;;;;;;5027745;28;20209;-75
2022/09/20 13:15:34;;;;;;;0.70;0.70;;;22.70;65.40;;;;;;5023974;28;20204;-75
2022/09/20 13:18:02;;;;;;;0.40;0.40;;;22.70;64.10;;;;;;5030879;28;20246;-75
2022/09/20 13:20:34;;;;;;;0.43;0.43;;;22.70;65.20;;;;;;5028362;28;20207;-75
2022/09/20 13:23:03;;;;;;;0.60;0.60;;;22.70;66.90;;;;;;5058334;28;20311;-75
2022/09/20 13:25:33;;;;;;;0.38;0.38;;;22.70;67.00;;;;;;5026325;28;20200;-75
2022/09/20 13:28:08;;;;;;;0.40;0.40;;;22.70;67.00;;;;;;5024720;28;20828;-75
2022/09/20 13:30:40;;;;;;;0.75;0.70;;;22.60;66.20;;;;;;5030363;28;20191;-75
2022/09/20 13:33:23;;;;;;;1.02;0.80;;;22.60;67.00;;;;;;5025094;28;20334;-75
2022/09/20 13:35:55;;;;;;;0.50;0.50;;;22.50;71.50;;;;;;5024970;28;20279;-75
2022/09/20 13:38:26;;;;;;;0.50;0.50;;;22.40;69.20;;;;;;5027280;28;20217;-76
2022/09/20 13:41:05;;;;;;;0.60;0.60;;;22.40;70.50;;;;;;5024573;28;20299;-75
2022/09/20 13:43:36;;;;;;;0.65;0.60;;;22.50;70.20;;;;;;5026987;28;20651;-75
2022/09/20 13:46:10;;;;;;;0.90;0.70;;;22.50;70.20;;;;;;5024405;28;20200;-75
2022/09/20 13:48:39;;;;;;;0.60;0.60;;;22.40;68.50;;;;;;5024350;28;20226;-75
2022/09/20 13:51:18;;;;;;;0.50;0.50;;;22.30;69.90;;;;;;5027453;28;20250;-75
2022/09/20 13:53:45;;;;;;;0.50;0.50;;;22.30;68.70;;;;;;5023739;28;20220;-75
2022/09/20 13:56:20;;;;;;;1.48;0.73;;;22.20;70.40;;;;;;5028403;28;20195;-75
2022/09/20 13:58:48;;;;;;;0.60;0.60;;;22.30;70.40;;;;;;5022612;28;20246;-75